sensor_id;sensor_type;location;lat;lon;timestamp;temperature;humidity
22678;DHT22;26259;50.214;18.620;2022-08-19T00:00:29;20.40;99.90
22678;DHT22;26259;50.214;18.620;2022-08-19T00:02:55;20.40;99.90
22678;DHT22;26259;50.214;18.620;2022-08-19T00:05:21;20.30;99.90
22678;DHT22;26259;50.214;18.620;2022-08-19T00:07:47;20.30;99.90
22678;DHT22;26259;50.214;18.620;2022-08-19T00:10:16;20.30;99.90
22678;DHT22;26259;50.214;18.620;2022-08-19T00:12:42;20.20;99.90
22678;DHT22;26259;50.214;18.620;2022-08-19T00:15:10;20.10;99.90
22678;DHT22;26259;50.214;18.620;2022-08-19T00:17:39;20.10;99.90
22678;DHT22;26259;50.214;18.620;2022-08-19T00:20:06;20.00;99.90
22678;DHT22;26259;50.214;18.620;2022-08-19T00:22:32;20.00;99.90
22678;DHT22;26259;50.214;18.620;2022-08-19T00:24:58;20.00;99.90
22678;DHT22;26259;50.214;18.620;2022-08-19T00:27:24;20.00;99.90
22678;DHT22;26259;50.214;18.620;2022-08-19T00:29:50;19.90;99.90
22678;DHT22;26259;50.214;18.620;2022-08-19T00:32:16;19.90;99.90
22678;DHT22;26259;50.214;18.620;2022-08-19T00:34:42;19.90;99.90
22678;DHT22;26259;50.214;18.620;2022-08-19T00:37:07;19.80;99.90
22678;DHT22;26259;50.214;18.620;2022-08-19T00:39:33;19.80;99.90
22678;DHT22;26259;50.214;18.620;2022-08-19T00:41:59;19.80;99.90
22678;DHT22;26259;50.214;18.620;2022-08-19T00:44:27;19.70;99.90
22678;DHT22;26259;50.214;18.620;2022-08-19T00:46:54;19.60;99.90
22678;DHT22;26259;50.214;18.620;2022-08-19T00:49:28;19.60;99.90
22678;DHT22;26259;50.214;18.620;2022-08-19T00:52:04;19.50;99.90
22678;DHT22;26259;50.214;18.620;2022-08-19T00:54:31;19.40;99.90
22678;DHT22;26259;50.214;18.620;2022-08-19T00:56:59;19.40;99.90
22678;DHT22;26259;50.214;18.620;2022-08-19T00:59:27;19.40;99.90
22678;DHT22;26259;50.214;18.620;2022-08-19T01:01:53;19.30;99.90
22678;DHT22;26259;50.214;18.620;2022-08-19T01:04:19;19.30;99.90
22678;DHT22;26259;50.214;18.620;2022-08-19T01:06:44;19.20;99.90
22678;DHT22;26259;50.214;18.620;2022-08-19T01:09:10;19.20;99.90
22678;DHT22;26259;50.214;18.620;2022-08-19T01:11:38;19.10;99.90
22678;DHT22;26259;50.214;18.620;2022-08-19T01:14:06;19.10;99.90
22678;DHT22;26259;50.214;18.620;2022-08-19T01:16:33;19.00;99.90
22678;DHT22;26259;50.214;18.620;2022-08-19T01:18:59;18.90;99.90
22678;DHT22;26259;50.214;18.620;2022-08-19T01:21:34;18.90;99.90
22678;DHT22;26259;50.214;18.620;2022-08-19T01:24:02;18.90;99.90
22678;DHT22;26259;50.214;18.620;2022-08-19T01:26:28;18.80;99.90
22678;DHT22;26259;50.214;18.620;2022-08-19T01:28:56;18.80;99.90
22678;DHT22;26259;50.214;18.620;2022-08-19T01:31:25;18.70;99.90
22678;DHT22;26259;50.214;18.620;2022-08-19T01:33:52;18.60;99.90
22678;DHT22;26259;50.214;18.620;2022-08-19T01:36:27;18.60;99.90
22678;DHT22;26259;50.214;18.620;2022-08-19T01:38:53;18.60;99.90
22678;DHT22;26259;50.214;18.620;2022-08-19T01:41:19;18.60;99.90
22678;DHT22;26259;50.214;18.620;2022-08-19T01:43:44;18.60;99.90
22678;DHT22;26259;50.214;18.620;2022-08-19T01:46:10;18.60;99.90
22678;DHT22;26259;50.214;18.620;2022-08-19T01:48:40;18.60;99.90
22678;DHT22;26259;50.214;18.620;2022-08-19T01:51:07;18.50;99.90
22678;DHT22;26259;50.214;18.620;2022-08-19T01:53:33;18.50;99.90
22678;DHT22;26259;50.214;18.620;2022-08-19T01:55:59;18.40;99.90
22678;DHT22;26259;50.214;18.620;2022-08-19T01:58:30;18.40;99.90
22678;DHT22;26259;50.214;18.620;2022-08-19T02:00:57;18.40;99.90
22678;DHT22;26259;50.214;18.620;2022-08-19T02:03:23;18.40;99.90
22678;DHT22;26259;50.214;18.620;2022-08-19T02:05:57;18.40;99.90
22678;DHT22;26259;50.214;18.620;2022-08-19T02:08:25;18.50;99.90
22678;DHT22;26259;50.214;18.620;2022-08-19T02:10:51;18.40;99.90
22678;DHT22;26259;50.214;18.620;2022-08-19T02:13:17;18.40;99.90
22678;DHT22;26259;50.214;18.620;2022-08-19T02:15:43;18.40;99.90
22678;DHT22;26259;50.214;18.620;2022-08-19T02:18:09;18.40;99.90
22678;DHT22;26259;50.214;18.620;2022-08-19T02:20:36;18.50;99.90
22678;DHT22;26259;50.214;18.620;2022-08-19T02:23:02;18.50;99.90
22678;DHT22;26259;50.214;18.620;2022-08-19T02:25:27;18.50;99.90
22678;DHT22;26259;50.214;18.620;2022-08-19T02:27:53;18.50;99.90
22678;DHT22;26259;50.214;18.620;2022-08-19T02:30:20;18.50;99.90
22678;DHT22;26259;50.214;18.620;2022-08-19T02:32:45;18.50;99.90
22678;DHT22;26259;50.214;18.620;2022-08-19T02:35:13;18.60;99.90
22678;DHT22;26259;50.214;18.620;2022-08-19T02:37:43;18.50;99.90
22678;DHT22;26259;50.214;18.620;2022-08-19T02:40:29;18.60;99.90
22678;DHT22;26259;50.214;18.620;2022-08-19T02:42:55;18.60;99.90
22678;DHT22;26259;50.214;18.620;2022-08-19T02:45:21;18.70;99.90
22678;DHT22;26259;50.214;18.620;2022-08-19T02:47:48;18.70;99.90
22678;DHT22;26259;50.214;18.620;2022-08-19T02:50:13;18.60;99.90
22678;DHT22;26259;50.214;18.620;2022-08-19T02:52:40;18.60;99.90
22678;DHT22;26259;50.214;18.620;2022-08-19T02:55:06;18.60;99.90
22678;DHT22;26259;50.214;18.620;2022-08-19T02:57:32;18.50;99.90
22678;DHT22;26259;50.214;18.620;2022-08-19T02:59:59;18.40;99.90
22678;DHT22;26259;50.214;18.620;2022-08-19T03:02:25;18.30;99.90
22678;DHT22;26259;50.214;18.620;2022-08-19T03:04:51;18.30;99.90
22678;DHT22;26259;50.214;18.620;2022-08-19T03:07:17;18.30;99.90
22678;DHT22;26259;50.214;18.620;2022-08-19T03:09:43;18.30;99.90
22678;DHT22;26259;50.214;18.620;2022-08-19T03:12:09;18.30;99.90
22678;DHT22;26259;50.214;18.620;2022-08-19T03:14:35;18.20;99.90
22678;DHT22;26259;50.214;18.620;2022-08-19T03:17:02;18.20;99.90
22678;DHT22;26259;50.214;18.620;2022-08-19T03:19:29;18.20;99.90
22678;DHT22;26259;50.214;18.620;2022-08-19T03:21:56;18.20;99.90
22678;DHT22;26259;50.214;18.620;2022-08-19T03:24:22;18.10;99.90
22678;DHT22;26259;50.214;18.620;2022-08-19T03:26:53;18.10;99.90
22678;DHT22;26259;50.214;18.620;2022-08-19T03:29:23;18.10;99.90
22678;DHT22;26259;50.214;18.620;2022-08-19T03:31:49;18.10;99.90
22678;DHT22;26259;50.214;18.620;2022-08-19T03:34:27;18.00;99.90
22678;DHT22;26259;50.214;18.620;2022-08-19T03:36:55;18.00;99.90
22678;DHT22;26259;50.214;18.620;2022-08-19T03:39:21;18.00;99.90
22678;DHT22;26259;50.214;18.620;2022-08-19T03:41:49;18.00;99.90
22678;DHT22;26259;50.214;18.620;2022-08-19T03:44:18;18.00;99.90
22678;DHT22;26259;50.214;18.620;2022-08-19T03:46:48;18.00;99.90
22678;DHT22;26259;50.214;18.620;2022-08-19T03:49:15;18.00;99.90
22678;DHT22;26259;50.214;18.620;2022-08-19T03:51:41;17.90;99.90
22678;DHT22;26259;50.214;18.620;2022-08-19T03:54:09;17.90;99.90
22678;DHT22;26259;50.214;18.620;2022-08-19T03:56:37;17.90;99.90
22678;DHT22;26259;50.214;18.620;2022-08-19T03:59:04;17.90;99.90
22678;DHT22;26259;50.214;18.620;2022-08-19T04:01:30;17.90;99.90
22678;DHT22;26259;50.214;18.620;2022-08-19T04:03:57;18.00;99.90
22678;DHT22;26259;50.214;18.620;2022-08-19T04:06:26;18.00;99.90
22678;DHT22;26259;50.214;18.620;2022-08-19T04:08:54;18.00;99.90
22678;DHT22;26259;50.214;18.620;2022-08-19T04:11:23;18.10;99.90
22678;DHT22;26259;50.214;18.620;2022-08-19T04:13:50;18.10;99.90
22678;DHT22;26259;50.214;18.620;2022-08-19T04:16:17;18.30;99.90
22678;DHT22;26259;50.214;18.620;2022-08-19T04:18:45;18.30;99.90
22678;DHT22;26259;50.214;18.620;2022-08-19T04:21:20;18.50;99.90
22678;DHT22;26259;50.214;18.620;2022-08-19T04:23:47;18.60;99.90
22678;DHT22;26259;50.214;18.620;2022-08-19T04:26:18;18.70;99.90
22678;DHT22;26259;50.214;18.620;2022-08-19T04:28:45;18.70;99.90
22678;DHT22;26259;50.214;18.620;2022-08-19T04:31:16;18.80;99.90
22678;DHT22;26259;50.214;18.620;2022-08-19T04:33:43;18.90;99.90
22678;DHT22;26259;50.214;18.620;2022-08-19T04:36:19;19.00;99.90
22678;DHT22;26259;50.214;18.620;2022-08-19T04:38:46;19.10;99.90
22678;DHT22;26259;50.214;18.620;2022-08-19T04:41:12;19.20;99.90
22678;DHT22;26259;50.214;18.620;2022-08-19T04:43:56;19.40;99.90
22678;DHT22;26259;50.214;18.620;2022-08-19T04:46:22;19.40;99.90
22678;DHT22;26259;50.214;18.620;2022-08-19T04:48:47;19.50;99.90
22678;DHT22;26259;50.214;18.620;2022-08-19T04:51:13;19.60;99.90
22678;DHT22;26259;50.214;18.620;2022-08-19T04:53:40;19.70;99.90
22678;DHT22;26259;50.214;18.620;2022-08-19T04:56:12;19.80;99.90
22678;DHT22;26259;50.214;18.620;2022-08-19T04:58:40;19.90;99.90
22678;DHT22;26259;50.214;18.620;2022-08-19T05:01:08;20.00;99.90
22678;DHT22;26259;50.214;18.620;2022-08-19T05:03:34;20.10;99.90
22678;DHT22;26259;50.214;18.620;2022-08-19T05:06:08;20.20;99.90
22678;DHT22;26259;50.214;18.620;2022-08-19T05:08:36;20.30;99.90
22678;DHT22;26259;50.214;18.620;2022-08-19T05:11:08;20.40;99.90
22678;DHT22;26259;50.214;18.620;2022-08-19T05:13:34;20.50;99.90
22678;DHT22;26259;50.214;18.620;2022-08-19T05:16:00;20.50;99.90
22678;DHT22;26259;50.214;18.620;2022-08-19T05:18:26;20.60;99.90
22678;DHT22;26259;50.214;18.620;2022-08-19T05:21:13;20.70;99.90
22678;DHT22;26259;50.214;18.620;2022-08-19T05:23:57;20.90;99.90
22678;DHT22;26259;50.214;18.620;2022-08-19T05:26:24;21.00;99.90
22678;DHT22;26259;50.214;18.620;2022-08-19T05:28:52;21.20;99.90
22678;DHT22;26259;50.214;18.620;2022-08-19T05:31:18;21.30;99.90
22678;DHT22;26259;50.214;18.620;2022-08-19T05:33:44;21.50;99.90
22678;DHT22;26259;50.214;18.620;2022-08-19T05:36:09;21.70;99.90
22678;DHT22;26259;50.214;18.620;2022-08-19T05:38:35;21.90;99.90
22678;DHT22;26259;50.214;18.620;2022-08-19T05:41:07;22.10;99.90
22678;DHT22;26259;50.214;18.620;2022-08-19T05:43:33;22.30;99.90
22678;DHT22;26259;50.214;18.620;2022-08-19T05:45:59;22.50;99.90
22678;DHT22;26259;50.214;18.620;2022-08-19T05:48:25;22.80;99.90
22678;DHT22;26259;50.214;18.620;2022-08-19T05:50:51;23.00;99.90
22678;DHT22;26259;50.214;18.620;2022-08-19T05:53:18;23.10;99.90
22678;DHT22;26259;50.214;18.620;2022-08-19T05:55:43;23.30;99.90
22678;DHT22;26259;50.214;18.620;2022-08-19T05:58:10;23.50;99.90
22678;DHT22;26259;50.214;18.620;2022-08-19T06:00:37;23.60;99.90
22678;DHT22;26259;50.214;18.620;2022-08-19T06:03:03;23.80;99.90
22678;DHT22;26259;50.214;18.620;2022-08-19T06:05:30;23.90;99.90
22678;DHT22;26259;50.214;18.620;2022-08-19T06:07:55;24.10;99.90
22678;DHT22;26259;50.214;18.620;2022-08-19T06:10:21;24.20;99.90
22678;DHT22;26259;50.214;18.620;2022-08-19T06:12:48;24.40;99.90
22678;DHT22;26259;50.214;18.620;2022-08-19T06:15:14;24.50;99.90
22678;DHT22;26259;50.214;18.620;2022-08-19T06:17:41;24.60;99.90
22678;DHT22;26259;50.214;18.620;2022-08-19T06:20:11;24.80;99.90
22678;DHT22;26259;50.214;18.620;2022-08-19T06:22:40;24.90;99.90
22678;DHT22;26259;50.214;18.620;2022-08-19T06:25:06;25.00;99.90
22678;DHT22;26259;50.214;18.620;2022-08-19T06:27:32;25.20;99.90
22678;DHT22;26259;50.214;18.620;2022-08-19T06:29:58;25.40;99.90
22678;DHT22;26259;50.214;18.620;2022-08-19T06:32:24;25.50;99.90
22678;DHT22;26259;50.214;18.620;2022-08-19T06:34:49;25.60;99.90
22678;DHT22;26259;50.214;18.620;2022-08-19T06:37:15;25.70;99.90
22678;DHT22;26259;50.214;18.620;2022-08-19T06:39:42;25.90;99.90
22678;DHT22;26259;50.214;18.620;2022-08-19T06:42:09;26.10;99.90
22678;DHT22;26259;50.214;18.620;2022-08-19T06:44:38;26.30;99.90
22678;DHT22;26259;50.214;18.620;2022-08-19T06:47:07;26.40;99.90
22678;DHT22;26259;50.214;18.620;2022-08-19T06:49:33;26.60;99.90
22678;DHT22;26259;50.214;18.620;2022-08-19T06:52:00;26.70;94.60
22678;DHT22;26259;50.214;18.620;2022-08-19T06:54:26;26.90;92.10
22678;DHT22;26259;50.214;18.620;2022-08-19T06:56:55;26.90;87.90
22678;DHT22;26259;50.214;18.620;2022-08-19T06:59:24;27.10;89.90
22678;DHT22;26259;50.214;18.620;2022-08-19T07:01:55;27.20;90.00
22678;DHT22;26259;50.214;18.620;2022-08-19T07:04:24;27.30;83.20
22678;DHT22;26259;50.214;18.620;2022-08-19T07:06:52;27.40;84.60
22678;DHT22;26259;50.214;18.620;2022-08-19T07:09:21;27.50;86.40
22678;DHT22;26259;50.214;18.620;2022-08-19T07:11:48;27.40;84.60
22678;DHT22;26259;50.214;18.620;2022-08-19T07:14:16;27.50;86.70
22678;DHT22;26259;50.214;18.620;2022-08-19T07:16:44;27.70;83.20
22678;DHT22;26259;50.214;18.620;2022-08-19T07:19:11;27.70;81.20
22678;DHT22;26259;50.214;18.620;2022-08-19T07:21:37;27.90;76.40
22678;DHT22;26259;50.214;18.620;2022-08-19T07:24:03;28.00;71.70
22678;DHT22;26259;50.214;18.620;2022-08-19T07:26:33;28.10;72.50
22678;DHT22;26259;50.214;18.620;2022-08-19T07:28:59;28.20;71.00
22678;DHT22;26259;50.214;18.620;2022-08-19T07:31:27;28.10;68.00
22678;DHT22;26259;50.214;18.620;2022-08-19T07:33:55;28.20;66.90
22678;DHT22;26259;50.214;18.620;2022-08-19T07:36:27;28.30;66.10
22678;DHT22;26259;50.214;18.620;2022-08-19T07:38:59;28.40;65.20
22678;DHT22;26259;50.214;18.620;2022-08-19T07:41:26;28.30;65.50
22678;DHT22;26259;50.214;18.620;2022-08-19T07:43:54;28.30;66.50
22678;DHT22;26259;50.214;18.620;2022-08-19T07:46:20;28.40;65.90
22678;DHT22;26259;50.214;18.620;2022-08-19T07:48:48;28.50;62.30
22678;DHT22;26259;50.214;18.620;2022-08-19T07:51:17;28.70;63.70
22678;DHT22;26259;50.214;18.620;2022-08-19T07:53:43;28.70;62.40
22678;DHT22;26259;50.214;18.620;2022-08-19T07:56:11;28.80;61.90
22678;DHT22;26259;50.214;18.620;2022-08-19T07:58:41;28.90;61.30
22678;DHT22;26259;50.214;18.620;2022-08-19T08:01:09;29.00;60.70
22678;DHT22;26259;50.214;18.620;2022-08-19T08:03:36;29.00;59.90
22678;DHT22;26259;50.214;18.620;2022-08-19T08:06:20;29.10;59.60
22678;DHT22;26259;50.214;18.620;2022-08-19T08:09:04;29.20;57.40
22678;DHT22;26259;50.214;18.620;2022-08-19T08:11:41;29.30;57.10
22678;DHT22;26259;50.214;18.620;2022-08-19T08:14:08;29.30;56.40
22678;DHT22;26259;50.214;18.620;2022-08-19T08:16:37;29.30;55.00
22678;DHT22;26259;50.214;18.620;2022-08-19T08:19:05;29.20;56.70
22678;DHT22;26259;50.214;18.620;2022-08-19T08:21:32;29.30;56.90
22678;DHT22;26259;50.214;18.620;2022-08-19T08:23:58;29.30;57.30
22678;DHT22;26259;50.214;18.620;2022-08-19T08:26:24;29.20;58.00
22678;DHT22;26259;50.214;18.620;2022-08-19T08:28:51;29.20;57.50
22678;DHT22;26259;50.214;18.620;2022-08-19T08:31:17;29.40;57.50
22678;DHT22;26259;50.214;18.620;2022-08-19T08:33:45;29.60;57.20
22678;DHT22;26259;50.214;18.620;2022-08-19T08:36:12;29.80;57.00
22678;DHT22;26259;50.214;18.620;2022-08-19T08:38:40;30.10;56.30
22678;DHT22;26259;50.214;18.620;2022-08-19T08:43:51;30.70;53.10
22678;DHT22;26259;50.214;18.620;2022-08-19T08:46:24;30.50;51.70
22678;DHT22;26259;50.214;18.620;2022-08-19T08:48:54;30.60;51.80
22678;DHT22;26259;50.214;18.620;2022-08-19T08:51:33;30.80;51.70
22678;DHT22;26259;50.214;18.620;2022-08-19T08:54:02;30.90;52.60
22678;DHT22;26259;50.214;18.620;2022-08-19T08:56:29;31.10;51.90
22678;DHT22;26259;50.214;18.620;2022-08-19T08:59:05;31.30;50.60
22678;DHT22;26259;50.214;18.620;2022-08-19T09:01:35;31.40;51.50
22678;DHT22;26259;50.214;18.620;2022-08-19T09:04:04;31.50;51.10
22678;DHT22;26259;50.214;18.620;2022-08-19T09:09:48;31.70;48.60
22678;DHT22;26259;50.214;18.620;2022-08-19T09:15:25;31.70;49.70
22678;DHT22;26259;50.214;18.620;2022-08-19T09:17:53;31.60;48.50
22678;DHT22;26259;50.214;18.620;2022-08-19T09:20:22;31.60;50.40
22678;DHT22;26259;50.214;18.620;2022-08-19T09:22:49;31.70;50.80
22678;DHT22;26259;50.214;18.620;2022-08-19T09:25:19;31.80;49.20
22678;DHT22;26259;50.214;18.620;2022-08-19T09:27:50;32.00;48.10
22678;DHT22;26259;50.214;18.620;2022-08-19T09:30:20;32.00;47.90
22678;DHT22;26259;50.214;18.620;2022-08-19T09:32:47;32.00;47.60
22678;DHT22;26259;50.214;18.620;2022-08-19T09:35:13;32.00;45.20
22678;DHT22;26259;50.214;18.620;2022-08-19T09:37:40;32.10;44.70
22678;DHT22;26259;50.214;18.620;2022-08-19T09:40:06;32.10;44.40
22678;DHT22;26259;50.214;18.620;2022-08-19T09:42:32;32.30;44.10
22678;DHT22;26259;50.214;18.620;2022-08-19T09:44:59;32.30;44.10
22678;DHT22;26259;50.214;18.620;2022-08-19T09:47:24;32.40;43.60
22678;DHT22;26259;50.214;18.620;2022-08-19T09:49:50;32.50;44.40
22678;DHT22;26259;50.214;18.620;2022-08-19T09:52:16;32.30;45.60
22678;DHT22;26259;50.214;18.620;2022-08-19T09:54:41;32.30;47.50
22678;DHT22;26259;50.214;18.620;2022-08-19T09:57:07;32.00;46.90
22678;DHT22;26259;50.214;18.620;2022-08-19T09:59:33;32.10;47.90
22678;DHT22;26259;50.214;18.620;2022-08-19T10:01:59;32.20;47.00
22678;DHT22;26259;50.214;18.620;2022-08-19T10:04:25;32.30;47.30
22678;DHT22;26259;50.214;18.620;2022-08-19T10:07:11;32.40;46.90
22678;DHT22;26259;50.214;18.620;2022-08-19T10:09:36;32.30;44.40
22678;DHT22;26259;50.214;18.620;2022-08-19T10:12:04;31.80;45.60
22678;DHT22;26259;50.214;18.620;2022-08-19T10:14:30;31.80;46.70
22678;DHT22;26259;50.214;18.620;2022-08-19T10:16:56;31.70;45.70
22678;DHT22;26259;50.214;18.620;2022-08-19T10:19:22;31.70;45.90
22678;DHT22;26259;50.214;18.620;2022-08-19T10:21:48;31.90;46.50
22678;DHT22;26259;50.214;18.620;2022-08-19T10:24:13;31.70;46.00
22678;DHT22;26259;50.214;18.620;2022-08-19T10:26:40;31.90;46.60
22678;DHT22;26259;50.214;18.620;2022-08-19T10:29:12;32.10;44.90
22678;DHT22;26259;50.214;18.620;2022-08-19T10:31:41;32.30;44.90
22678;DHT22;26259;50.214;18.620;2022-08-19T10:34:07;32.20;43.20
22678;DHT22;26259;50.214;18.620;2022-08-19T10:36:35;32.10;45.40
22678;DHT22;26259;50.214;18.620;2022-08-19T10:39:04;32.40;44.90
22678;DHT22;26259;50.214;18.620;2022-08-19T10:41:33;32.70;41.80
22678;DHT22;26259;50.214;18.620;2022-08-19T10:44:02;32.90;43.50
22678;DHT22;26259;50.214;18.620;2022-08-19T10:46:28;33.00;41.30
22678;DHT22;26259;50.214;18.620;2022-08-19T10:48:58;33.10;40.00
22678;DHT22;26259;50.214;18.620;2022-08-19T10:51:24;33.00;40.40
22678;DHT22;26259;50.214;18.620;2022-08-19T10:54:08;33.00;40.30
22678;DHT22;26259;50.214;18.620;2022-08-19T10:56:34;33.10;40.50
22678;DHT22;26259;50.214;18.620;2022-08-19T11:01:49;33.20;38.60
22678;DHT22;26259;50.214;18.620;2022-08-19T11:04:16;33.30;39.30
22678;DHT22;26259;50.214;18.620;2022-08-19T11:06:48;33.20;38.80
22678;DHT22;26259;50.214;18.620;2022-08-19T11:09:16;33.40;39.00
22678;DHT22;26259;50.214;18.620;2022-08-19T11:11:42;33.50;37.50
22678;DHT22;26259;50.214;18.620;2022-08-19T11:14:11;33.60;37.30
22678;DHT22;26259;50.214;18.620;2022-08-19T11:16:37;33.70;36.50
22678;DHT22;26259;50.214;18.620;2022-08-19T11:19:04;33.80;36.50
22678;DHT22;26259;50.214;18.620;2022-08-19T11:21:33;33.80;35.90
22678;DHT22;26259;50.214;18.620;2022-08-19T11:24:03;33.90;34.00
22678;DHT22;26259;50.214;18.620;2022-08-19T11:26:30;34.00;35.40
22678;DHT22;26259;50.214;18.620;2022-08-19T11:28:57;34.00;36.10
22678;DHT22;26259;50.214;18.620;2022-08-19T11:31:28;34.20;35.90
22678;DHT22;26259;50.214;18.620;2022-08-19T11:33:56;34.30;33.50
22678;DHT22;26259;50.214;18.620;2022-08-19T11:36:22;34.50;34.60
22678;DHT22;26259;50.214;18.620;2022-08-19T11:38:50;34.60;34.40
22678;DHT22;26259;50.214;18.620;2022-08-19T11:41:18;34.40;32.20
22678;DHT22;26259;50.214;18.620;2022-08-19T11:43:44;34.30;34.00
22678;DHT22;26259;50.214;18.620;2022-08-19T11:46:12;34.20;32.50
22678;DHT22;26259;50.214;18.620;2022-08-19T11:48:39;34.20;32.30
22678;DHT22;26259;50.214;18.620;2022-08-19T11:51:13;34.20;33.40
22678;DHT22;26259;50.214;18.620;2022-08-19T11:53:40;33.90;33.30
22678;DHT22;26259;50.214;18.620;2022-08-19T11:56:06;33.90;33.60
22678;DHT22;26259;50.214;18.620;2022-08-19T11:58:32;34.00;33.10
22678;DHT22;26259;50.214;18.620;2022-08-19T12:00:59;34.10;33.50
22678;DHT22;26259;50.214;18.620;2022-08-19T12:03:25;34.20;33.60
22678;DHT22;26259;50.214;18.620;2022-08-19T12:05:51;34.20;34.30
22678;DHT22;26259;50.214;18.620;2022-08-19T12:08:17;34.20;33.60
22678;DHT22;26259;50.214;18.620;2022-08-19T12:10:44;34.20;33.70
22678;DHT22;26259;50.214;18.620;2022-08-19T12:13:11;34.10;33.90
22678;DHT22;26259;50.214;18.620;2022-08-19T12:15:40;34.10;33.80
22678;DHT22;26259;50.214;18.620;2022-08-19T12:18:07;34.30;32.40
22678;DHT22;26259;50.214;18.620;2022-08-19T12:20:38;34.40;32.40
22678;DHT22;26259;50.214;18.620;2022-08-19T12:23:06;34.50;32.10
22678;DHT22;26259;50.214;18.620;2022-08-19T12:25:35;34.50;33.20
22678;DHT22;26259;50.214;18.620;2022-08-19T12:28:01;34.40;33.20
22678;DHT22;26259;50.214;18.620;2022-08-19T12:30:26;34.50;33.00
22678;DHT22;26259;50.214;18.620;2022-08-19T12:32:52;34.50;32.90
22678;DHT22;26259;50.214;18.620;2022-08-19T12:35:18;34.40;33.90
22678;DHT22;26259;50.214;18.620;2022-08-19T12:37:46;34.30;33.70
22678;DHT22;26259;50.214;18.620;2022-08-19T12:40:13;34.50;33.30
22678;DHT22;26259;50.214;18.620;2022-08-19T12:42:39;34.50;32.40
22678;DHT22;26259;50.214;18.620;2022-08-19T12:45:08;34.50;32.10
22678;DHT22;26259;50.214;18.620;2022-08-19T12:47:34;34.40;32.50
22678;DHT22;26259;50.214;18.620;2022-08-19T12:50:00;34.40;34.60
22678;DHT22;26259;50.214;18.620;2022-08-19T12:52:26;34.20;32.50
22678;DHT22;26259;50.214;18.620;2022-08-19T12:54:54;34.20;33.20
22678;DHT22;26259;50.214;18.620;2022-08-19T12:57:23;34.30;33.50
22678;DHT22;26259;50.214;18.620;2022-08-19T12:59:52;34.40;36.90
22678;DHT22;26259;50.214;18.620;2022-08-19T13:02:19;34.40;32.10
22678;DHT22;26259;50.214;18.620;2022-08-19T13:04:45;34.60;33.60
22678;DHT22;26259;50.214;18.620;2022-08-19T13:07:10;34.80;33.30
22678;DHT22;26259;50.214;18.620;2022-08-19T13:09:36;34.70;33.30
22678;DHT22;26259;50.214;18.620;2022-08-19T13:12:02;34.70;33.20
22678;DHT22;26259;50.214;18.620;2022-08-19T13:14:28;34.60;32.60
22678;DHT22;26259;50.214;18.620;2022-08-19T13:16:56;34.50;32.40
22678;DHT22;26259;50.214;18.620;2022-08-19T13:19:22;34.50;32.90
22678;DHT22;26259;50.214;18.620;2022-08-19T13:21:52;34.30;32.40
22678;DHT22;26259;50.214;18.620;2022-08-19T13:24:19;34.10;33.10
22678;DHT22;26259;50.214;18.620;2022-08-19T13:26:44;34.10;33.00
22678;DHT22;26259;50.214;18.620;2022-08-19T13:29:10;34.00;34.90
22678;DHT22;26259;50.214;18.620;2022-08-19T13:31:54;33.90;34.10
22678;DHT22;26259;50.214;18.620;2022-08-19T13:34:39;34.00;33.50
22678;DHT22;26259;50.214;18.620;2022-08-19T13:37:05;34.20;31.80
22678;DHT22;26259;50.214;18.620;2022-08-19T13:39:35;34.30;32.80
22678;DHT22;26259;50.214;18.620;2022-08-19T13:42:01;34.30;32.60
22678;DHT22;26259;50.214;18.620;2022-08-19T13:44:28;34.30;31.40
22678;DHT22;26259;50.214;18.620;2022-08-19T13:47:01;34.40;31.40
22678;DHT22;26259;50.214;18.620;2022-08-19T13:49:29;34.40;31.90
22678;DHT22;26259;50.214;18.620;2022-08-19T13:51:56;34.20;33.80
22678;DHT22;26259;50.214;18.620;2022-08-19T13:54:22;34.10;32.80
22678;DHT22;26259;50.214;18.620;2022-08-19T13:56:48;34.10;32.00
22678;DHT22;26259;50.214;18.620;2022-08-19T13:59:13;33.90;33.40
22678;DHT22;26259;50.214;18.620;2022-08-19T14:01:40;33.80;34.10
22678;DHT22;26259;50.214;18.620;2022-08-19T14:04:07;33.70;32.50
22678;DHT22;26259;50.214;18.620;2022-08-19T14:06:33;33.80;33.10
22678;DHT22;26259;50.214;18.620;2022-08-19T14:08:59;33.90;33.90
22678;DHT22;26259;50.214;18.620;2022-08-19T14:11:25;34.10;34.10
22678;DHT22;26259;50.214;18.620;2022-08-19T14:13:51;34.10;32.90
22678;DHT22;26259;50.214;18.620;2022-08-19T14:16:16;34.10;31.10
22678;DHT22;26259;50.214;18.620;2022-08-19T14:18:42;34.00;33.50
22678;DHT22;26259;50.214;18.620;2022-08-19T14:21:15;34.10;32.00
22678;DHT22;26259;50.214;18.620;2022-08-19T14:23:42;34.10;33.00
22678;DHT22;26259;50.214;18.620;2022-08-19T14:26:11;34.10;33.80
22678;DHT22;26259;50.214;18.620;2022-08-19T14:28:38;34.20;32.70
22678;DHT22;26259;50.214;18.620;2022-08-19T14:31:06;34.20;32.70
22678;DHT22;26259;50.214;18.620;2022-08-19T14:33:32;34.10;34.10
22678;DHT22;26259;50.214;18.620;2022-08-19T14:35:58;34.10;31.30
22678;DHT22;26259;50.214;18.620;2022-08-19T14:38:25;34.00;31.70
22678;DHT22;26259;50.214;18.620;2022-08-19T14:40:51;34.00;32.60
22678;DHT22;26259;50.214;18.620;2022-08-19T14:43:17;34.00;32.00
22678;DHT22;26259;50.214;18.620;2022-08-19T14:45:43;34.00;33.90
22678;DHT22;26259;50.214;18.620;2022-08-19T14:48:09;34.00;32.10
22678;DHT22;26259;50.214;18.620;2022-08-19T14:50:35;33.80;32.40
22678;DHT22;26259;50.214;18.620;2022-08-19T14:53:07;33.60;33.50
22678;DHT22;26259;50.214;18.620;2022-08-19T14:55:34;33.40;34.50
22678;DHT22;26259;50.214;18.620;2022-08-19T14:58:00;33.30;33.10
22678;DHT22;26259;50.214;18.620;2022-08-19T15:00:26;33.00;33.50
22678;DHT22;26259;50.214;18.620;2022-08-19T15:02:52;32.90;34.10
22678;DHT22;26259;50.214;18.620;2022-08-19T15:05:20;32.80;35.20
22678;DHT22;26259;50.214;18.620;2022-08-19T15:07:46;32.70;35.90
22678;DHT22;26259;50.214;18.620;2022-08-19T15:10:14;32.70;33.60
22678;DHT22;26259;50.214;18.620;2022-08-19T15:12:40;32.70;34.60
22678;DHT22;26259;50.214;18.620;2022-08-19T15:15:13;32.70;34.50
22678;DHT22;26259;50.214;18.620;2022-08-19T15:17:42;32.70;34.00
22678;DHT22;26259;50.214;18.620;2022-08-19T15:20:10;32.50;34.20
22678;DHT22;26259;50.214;18.620;2022-08-19T15:22:37;32.50;36.00
22678;DHT22;26259;50.214;18.620;2022-08-19T15:25:05;32.30;35.50
22678;DHT22;26259;50.214;18.620;2022-08-19T15:27:32;32.10;35.40
22678;DHT22;26259;50.214;18.620;2022-08-19T15:29:57;32.00;35.20